createdAt,value
2023-01-17T13:20:18.267Z,29.545
2023-01-17T13:25:17.223Z,29.547
2023-01-17T13:30:17.353Z,29.546
2023-01-17T13:35:17.397Z,29.546
2023-01-17T13:40:17.443Z,29.546
2023-01-17T13:45:17.363Z,29.542
2023-01-17T13:50:17.769Z,29.541
2023-01-17T13:55:17.410Z,29.543
2023-01-17T14:00:17.538Z,29.539
2023-01-17T14:05:17.480Z,29.543
2023-01-17T14:10:18.735Z,29.543
2023-01-17T14:15:17.444Z,29.543
2023-01-17T14:20:17.948Z,29.539
2023-01-17T14:25:17.495Z,29.540
2023-01-17T14:30:17.869Z,29.542
2023-01-17T14:35:17.678Z,29.537
2023-01-17T14:40:17.579Z,29.538
2023-01-17T14:45:17.492Z,29.537
2023-01-17T14:50:17.726Z,29.536
2023-01-17T14:55:17.688Z,29.534
2023-01-17T15:00:17.799Z,29.536
2023-01-17T15:05:17.659Z,29.538
2023-01-17T15:10:17.768Z,29.540
2023-01-17T15:15:17.616Z,29.540
2023-01-17T15:20:17.678Z,29.542
2023-01-17T15:25:17.688Z,29.541
2023-01-17T15:30:17.977Z,29.539
2023-01-17T15:35:17.787Z,29.540
2023-01-17T15:40:18.126Z,29.538
2023-01-17T15:45:17.711Z,29.533
2023-01-17T15:50:18.407Z,29.533
2023-01-17T15:55:17.774Z,29.532
2023-01-17T16:00:17.807Z,29.529
2023-01-17T16:05:18.161Z,29.523
2023-01-17T16:10:18.624Z,29.524
2023-01-17T16:15:18.546Z,29.522
2023-01-17T16:20:18.058Z,29.518
2023-01-17T16:25:17.957Z,29.518
2023-01-17T16:30:17.942Z,29.516
2023-01-17T16:35:17.908Z,29.515
2023-01-17T16:40:18.371Z,29.510
2023-01-17T16:45:17.981Z,29.509
2023-01-17T16:50:18.467Z,29.505
2023-01-17T16:55:17.915Z,29.503
2023-01-17T17:00:18.104Z,29.499
2023-01-17T17:05:18.262Z,29.495
2023-01-17T17:10:18.020Z,29.497
2023-01-17T17:15:18.045Z,29.495
2023-01-17T17:20:18.146Z,29.492
2023-01-17T17:25:17.902Z,29.490
2023-01-17T17:30:18.075Z,29.487
2023-01-17T17:35:18.197Z,29.486
2023-01-17T17:40:18.042Z,29.481
2023-01-17T17:45:18.078Z,29.483
2023-01-17T17:50:18.635Z,29.486
2023-01-17T17:55:18.179Z,29.483
2023-01-17T18:00:18.453Z,29.483
2023-01-17T18:05:18.160Z,29.479
2023-01-17T18:10:19.132Z,29.475
2023-01-17T18:15:16.196Z,29.476
2023-01-17T18:20:16.375Z,29.476
2023-01-17T18:25:16.275Z,29.477
2023-01-17T18:30:16.328Z,29.487
2023-01-17T18:35:16.925Z,29.494
2023-01-17T18:40:16.399Z,29.493
2023-01-17T18:45:16.244Z,29.477
2023-01-17T18:50:16.759Z,29.463
2023-01-17T18:55:16.376Z,29.471
2023-01-17T19:00:16.554Z,29.469
2023-01-17T19:05:16.437Z,29.470
2023-01-17T19:10:16.632Z,29.477
2023-01-17T19:15:16.514Z,29.483
2023-01-17T19:20:16.574Z,29.481
2023-01-17T19:25:16.503Z,29.477
2023-01-17T19:30:16.608Z,29.475
2023-01-17T19:35:17.062Z,29.481
2023-01-17T19:40:16.457Z,29.487
2023-01-17T19:45:16.494Z,29.480
2023-01-17T19:50:16.521Z,29.480
2023-01-17T19:55:16.436Z,29.481
2023-01-17T20:00:16.786Z,29.479
2023-01-17T20:05:16.476Z,29.479
2023-01-17T20:10:17.602Z,29.477
2023-01-17T20:15:16.659Z,29.477
2023-01-17T20:20:16.597Z,29.478
2023-01-17T20:25:16.538Z,29.478
2023-01-17T20:30:20.508Z,29.479
2023-01-17T20:35:16.737Z,29.478
2023-01-17T20:40:16.691Z,29.477
2023-01-17T20:45:16.656Z,29.477
2023-01-17T20:50:17.229Z,29.476
2023-01-17T20:55:16.604Z,29.475
2023-01-17T21:00:16.678Z,29.474
2023-01-17T21:05:16.671Z,29.475
2023-01-17T21:10:16.760Z,29.477
2023-01-17T21:15:16.631Z,29.479
2023-01-17T21:20:17.006Z,29.483
2023-01-17T21:25:16.850Z,29.481
2023-01-17T21:30:16.731Z,29.479
2023-01-17T21:35:16.824Z,29.478
2023-01-17T21:40:16.792Z,29.477
2023-01-17T21:45:16.702Z,29.476
2023-01-17T21:50:35.594Z,29.477
2023-01-17T21:55:16.788Z,29.477
2023-01-17T22:00:16.838Z,29.479
2023-01-17T22:05:16.994Z,29.474
2023-01-17T22:10:19.769Z,29.476
2023-01-17T22:15:16.874Z,29.479
2023-01-17T22:20:17.426Z,29.481
2023-01-17T22:25:16.977Z,29.482
2023-01-17T22:30:17.154Z,29.484
2023-01-17T22:35:17.113Z,29.482
2023-01-17T22:40:16.897Z,29.482
2023-01-17T22:45:16.942Z,29.483
2023-01-17T22:50:17.047Z,29.483
2023-01-17T22:55:16.921Z,29.484
2023-01-17T23:00:17.178Z,29.486
2023-01-17T23:05:17.196Z,29.487
2023-01-17T23:10:17.296Z,29.490
2023-01-17T23:15:16.949Z,29.489
2023-01-17T23:20:17.088Z,29.487
2023-01-17T23:25:17.020Z,29.492
2023-01-17T23:30:17.252Z,29.493
2023-01-17T23:35:18.036Z,29.494
2023-01-17T23:40:17.103Z,29.494
2023-01-17T23:45:17.114Z,29.491
2023-01-17T23:50:17.154Z,29.492
2023-01-17T23:55:17.057Z,29.498
